sensor_id;sensor_type;location;lat;lon;timestamp;P1;durP1;ratioP1;P2;durP2;ratioP2
21727;SDS011;11026;50.560;17.852;2024-03-23T00:54:12;46.08;;;32.50;;
21727;SDS011;11026;50.560;17.852;2024-03-23T00:56:39;51.08;;;33.90;;
21727;SDS011;11026;50.560;17.852;2024-03-23T00:59:07;50.10;;;32.55;;
21727;SDS011;11026;50.560;17.852;2024-03-23T01:04:03;46.45;;;32.80;;
21727;SDS011;11026;50.560;17.852;2024-03-23T01:06:29;50.53;;;35.35;;
21727;SDS011;11026;50.560;17.852;2024-03-23T01:08:57;50.85;;;35.38;;
21727;SDS011;11026;50.560;17.852;2024-03-23T01:11:24;49.97;;;34.55;;
21727;SDS011;11026;50.560;17.852;2024-03-23T01:13:53;48.00;;;32.50;;
21727;SDS011;11026;50.560;17.852;2024-03-23T01:16:20;45.47;;;31.90;;
21727;SDS011;11026;50.560;17.852;2024-03-23T01:18:48;46.13;;;31.95;;
21727;SDS011;11026;50.560;17.852;2024-03-23T01:21:14;47.95;;;32.53;;
21727;SDS011;11026;50.560;17.852;2024-03-23T01:23:41;45.20;;;31.65;;
21727;SDS011;11026;50.560;17.852;2024-03-23T01:26:08;43.65;;;30.70;;
21727;SDS011;11026;50.560;17.852;2024-03-23T01:28:33;43.40;;;30.17;;
21727;SDS011;11026;50.560;17.852;2024-03-23T01:30:59;41.63;;;31.02;;
21727;SDS011;11026;50.560;17.852;2024-03-23T01:33:25;42.92;;;29.08;;
21727;SDS011;11026;50.560;17.852;2024-03-23T01:35:52;43.17;;;30.00;;
21727;SDS011;11026;50.560;17.852;2024-03-23T01:38:18;44.85;;;29.92;;
21727;SDS011;11026;50.560;17.852;2024-03-23T01:40:46;42.00;;;29.75;;
21727;SDS011;11026;50.560;17.852;2024-03-23T01:43:14;41.15;;;28.98;;
21727;SDS011;11026;50.560;17.852;2024-03-23T01:45:40;43.67;;;29.60;;
21727;SDS011;11026;50.560;17.852;2024-03-23T01:48:06;44.58;;;29.88;;
21727;SDS011;11026;50.560;17.852;2024-03-23T01:50:32;45.83;;;29.90;;
21727;SDS011;11026;50.560;17.852;2024-03-23T01:53:03;45.35;;;30.25;;
21727;SDS011;11026;50.560;17.852;2024-03-23T01:55:34;45.55;;;31.13;;
21727;SDS011;11026;50.560;17.852;2024-03-23T01:58:01;43.50;;;30.10;;
21727;SDS011;11026;50.560;17.852;2024-03-23T02:00:27;42.47;;;30.10;;
21727;SDS011;11026;50.560;17.852;2024-03-23T02:02:53;45.00;;;29.92;;
21727;SDS011;11026;50.560;17.852;2024-03-23T02:05:20;42.13;;;29.85;;
21727;SDS011;11026;50.560;17.852;2024-03-23T02:07:47;42.05;;;29.52;;
21727;SDS011;11026;50.560;17.852;2024-03-23T02:10:13;39.92;;;27.75;;
21727;SDS011;11026;50.560;17.852;2024-03-23T02:12:39;44.55;;;29.10;;
21727;SDS011;11026;50.560;17.852;2024-03-23T02:15:05;41.10;;;27.85;;
21727;SDS011;11026;50.560;17.852;2024-03-23T02:17:33;43.85;;;28.75;;
21727;SDS011;11026;50.560;17.852;2024-03-23T02:20:00;40.80;;;28.35;;
21727;SDS011;11026;50.560;17.852;2024-03-23T02:22:38;40.38;;;27.77;;
21727;SDS011;11026;50.560;17.852;2024-03-23T02:25:07;38.63;;;26.50;;
21727;SDS011;11026;50.560;17.852;2024-03-23T02:27:33;37.83;;;26.20;;
21727;SDS011;11026;50.560;17.852;2024-03-23T02:32:32;36.53;;;24.70;;
21727;SDS011;11026;50.560;17.852;2024-03-23T02:37:28;38.20;;;26.15;;
21727;SDS011;11026;50.560;17.852;2024-03-23T02:39:54;40.03;;;26.98;;
21727;SDS011;11026;50.560;17.852;2024-03-23T02:42:22;39.95;;;27.25;;
21727;SDS011;11026;50.560;17.852;2024-03-23T02:44:49;42.45;;;27.45;;
21727;SDS011;11026;50.560;17.852;2024-03-23T02:47:15;40.65;;;26.55;;
21727;SDS011;11026;50.560;17.852;2024-03-23T02:49:43;49.55;;;29.33;;
21727;SDS011;11026;50.560;17.852;2024-03-23T02:52:11;54.10;;;30.15;;
21727;SDS011;11026;50.560;17.852;2024-03-23T02:54:37;47.83;;;28.38;;
21727;SDS011;11026;50.560;17.852;2024-03-23T02:57:03;44.25;;;27.40;;
21727;SDS011;11026;50.560;17.852;2024-03-23T02:59:30;34.65;;;24.20;;
21727;SDS011;11026;50.560;17.852;2024-03-23T03:04:27;33.95;;;23.20;;
21727;SDS011;11026;50.560;17.852;2024-03-23T03:06:54;33.53;;;23.10;;
21727;SDS011;11026;50.560;17.852;2024-03-23T03:09:20;36.70;;;23.63;;
21727;SDS011;11026;50.560;17.852;2024-03-23T03:11:47;37.28;;;24.15;;
21727;SDS011;11026;50.560;17.852;2024-03-23T03:14:14;34.22;;;23.58;;
21727;SDS011;11026;50.560;17.852;2024-03-23T03:16:40;35.25;;;23.85;;
21727;SDS011;11026;50.560;17.852;2024-03-23T03:21:36;35.90;;;24.10;;
21727;SDS011;11026;50.560;17.852;2024-03-23T03:24:04;40.13;;;25.65;;
21727;SDS011;11026;50.560;17.852;2024-03-23T03:26:34;38.38;;;24.77;;
21727;SDS011;11026;50.560;17.852;2024-03-23T03:29:02;40.22;;;25.00;;
21727;SDS011;11026;50.560;17.852;2024-03-23T03:31:29;35.45;;;24.60;;
21727;SDS011;11026;50.560;17.852;2024-03-23T03:33:56;36.85;;;25.85;;
21727;SDS011;11026;50.560;17.852;2024-03-23T03:36:22;35.65;;;22.67;;
21727;SDS011;11026;50.560;17.852;2024-03-23T03:38:48;34.35;;;22.67;;
21727;SDS011;11026;50.560;17.852;2024-03-23T03:41:14;32.55;;;22.92;;
21727;SDS011;11026;50.560;17.852;2024-03-23T03:43:42;29.77;;;22.20;;
21727;SDS011;11026;50.560;17.852;2024-03-23T03:46:10;32.28;;;21.90;;
21727;SDS011;11026;50.560;17.852;2024-03-23T03:48:36;30.05;;;20.17;;
21727;SDS011;11026;50.560;17.852;2024-03-23T03:51:03;30.65;;;21.17;;
21727;SDS011;11026;50.560;17.852;2024-03-23T03:53:29;30.45;;;21.42;;
21727;SDS011;11026;50.560;17.852;2024-03-23T03:56:00;33.03;;;22.33;;
21727;SDS011;11026;50.560;17.852;2024-03-23T03:58:27;37.85;;;24.63;;
21727;SDS011;11026;50.560;17.852;2024-03-23T04:00:54;37.25;;;23.48;;
21727;SDS011;11026;50.560;17.852;2024-03-23T04:03:20;38.35;;;23.95;;
21727;SDS011;11026;50.560;17.852;2024-03-23T04:05:53;35.10;;;23.88;;
21727;SDS011;11026;50.560;17.852;2024-03-23T04:08:20;34.93;;;23.33;;
21727;SDS011;11026;50.560;17.852;2024-03-23T04:10:46;31.92;;;22.50;;
21727;SDS011;11026;50.560;17.852;2024-03-23T04:13:13;29.02;;;20.13;;
21727;SDS011;11026;50.560;17.852;2024-03-23T04:15:40;28.83;;;20.85;;
21727;SDS011;11026;50.560;17.852;2024-03-23T04:18:06;27.75;;;19.77;;
21727;SDS011;11026;50.560;17.852;2024-03-23T04:23:03;28.80;;;19.30;;
21727;SDS011;11026;50.560;17.852;2024-03-23T04:25:29;29.88;;;21.20;;
21727;SDS011;11026;50.560;17.852;2024-03-23T04:27:56;27.90;;;19.80;;
21727;SDS011;11026;50.560;17.852;2024-03-23T04:30:23;28.38;;;19.30;;
21727;SDS011;11026;50.560;17.852;2024-03-23T04:32:50;27.17;;;19.10;;
21727;SDS011;11026;50.560;17.852;2024-03-23T04:35:17;30.20;;;19.80;;
21727;SDS011;11026;50.560;17.852;2024-03-23T04:37:45;31.45;;;21.65;;
21727;SDS011;11026;50.560;17.852;2024-03-23T04:40:11;28.92;;;20.08;;
21727;SDS011;11026;50.560;17.852;2024-03-23T04:42:39;32.10;;;21.45;;
21727;SDS011;11026;50.560;17.852;2024-03-23T04:45:05;31.00;;;21.42;;
21727;SDS011;11026;50.560;17.852;2024-03-23T04:47:32;28.65;;;20.58;;
21727;SDS011;11026;50.560;17.852;2024-03-23T04:49:58;29.98;;;21.83;;
21727;SDS011;11026;50.560;17.852;2024-03-23T04:52:24;31.30;;;20.70;;
21727;SDS011;11026;50.560;17.852;2024-03-23T04:54:50;32.15;;;21.20;;
21727;SDS011;11026;50.560;17.852;2024-03-23T04:57:17;33.05;;;22.05;;
21727;SDS011;11026;50.560;17.852;2024-03-23T04:59:44;30.90;;;20.25;;
21727;SDS011;11026;50.560;17.852;2024-03-23T05:02:11;26.77;;;20.02;;
21727;SDS011;11026;50.560;17.852;2024-03-23T05:04:38;29.95;;;21.00;;
21727;SDS011;11026;50.560;17.852;2024-03-23T05:07:04;29.80;;;20.88;;
21727;SDS011;11026;50.560;17.852;2024-03-23T05:09:30;25.88;;;19.35;;
21727;SDS011;11026;50.560;17.852;2024-03-23T05:12:01;26.50;;;19.48;;
21727;SDS011;11026;50.560;17.852;2024-03-23T05:14:28;29.38;;;20.08;;
21727;SDS011;11026;50.560;17.852;2024-03-23T05:16:54;29.50;;;21.02;;
21727;SDS011;11026;50.560;17.852;2024-03-23T05:19:22;27.23;;;19.98;;
21727;SDS011;11026;50.560;17.852;2024-03-23T05:21:49;28.63;;;19.83;;
21727;SDS011;11026;50.560;17.852;2024-03-23T05:24:15;29.67;;;20.95;;
21727;SDS011;11026;50.560;17.852;2024-03-23T05:26:41;29.75;;;20.30;;
21727;SDS011;11026;50.560;17.852;2024-03-23T05:31:39;27.15;;;19.80;;
21727;SDS011;11026;50.560;17.852;2024-03-23T05:34:09;27.60;;;20.90;;
21727;SDS011;11026;50.560;17.852;2024-03-23T05:36:35;27.00;;;19.98;;
21727;SDS011;11026;50.560;17.852;2024-03-23T05:39:02;26.90;;;19.42;;
21727;SDS011;11026;50.560;17.852;2024-03-23T05:41:28;25.02;;;19.10;;
21727;SDS011;11026;50.560;17.852;2024-03-23T05:43:55;28.15;;;20.05;;
21727;SDS011;11026;50.560;17.852;2024-03-23T05:46:23;27.17;;;19.77;;
21727;SDS011;11026;50.560;17.852;2024-03-23T05:48:50;28.17;;;18.60;;
21727;SDS011;11026;50.560;17.852;2024-03-23T05:51:16;29.45;;;19.73;;
21727;SDS011;11026;50.560;17.852;2024-03-23T05:53:43;26.52;;;19.02;;
21727;SDS011;11026;50.560;17.852;2024-03-23T05:56:09;26.10;;;19.27;;
21727;SDS011;11026;50.560;17.852;2024-03-23T05:58:35;24.73;;;17.83;;
21727;SDS011;11026;50.560;17.852;2024-03-23T06:01:01;26.55;;;18.85;;
21727;SDS011;11026;50.560;17.852;2024-03-23T06:03:28;23.55;;;16.48;;
21727;SDS011;11026;50.560;17.852;2024-03-23T06:05:55;23.23;;;17.30;;
21727;SDS011;11026;50.560;17.852;2024-03-23T06:08:21;23.70;;;17.23;;
21727;SDS011;11026;50.560;17.852;2024-03-23T06:10:51;23.30;;;17.20;;
21727;SDS011;11026;50.560;17.852;2024-03-23T06:13:17;24.15;;;16.48;;
21727;SDS011;11026;50.560;17.852;2024-03-23T06:15:48;24.02;;;17.55;;
21727;SDS011;11026;50.560;17.852;2024-03-23T06:18:16;24.13;;;15.70;;
21727;SDS011;11026;50.560;17.852;2024-03-23T06:20:42;22.58;;;17.00;;
21727;SDS011;11026;50.560;17.852;2024-03-23T06:25:40;23.65;;;17.70;;
21727;SDS011;11026;50.560;17.852;2024-03-23T06:28:07;24.75;;;17.15;;
21727;SDS011;11026;50.560;17.852;2024-03-23T06:30:33;23.40;;;17.25;;
21727;SDS011;11026;50.560;17.852;2024-03-23T06:33:00;24.65;;;15.88;;
21727;SDS011;11026;50.560;17.852;2024-03-23T06:35:27;23.02;;;17.38;;
21727;SDS011;11026;50.560;17.852;2024-03-23T06:37:53;23.52;;;17.17;;
21727;SDS011;11026;50.560;17.852;2024-03-23T06:40:21;23.50;;;16.50;;
21727;SDS011;11026;50.560;17.852;2024-03-23T06:42:47;21.27;;;16.27;;
21727;SDS011;11026;50.560;17.852;2024-03-23T06:45:14;23.77;;;16.70;;
21727;SDS011;11026;50.560;17.852;2024-03-23T06:47:42;22.88;;;16.27;;
21727;SDS011;11026;50.560;17.852;2024-03-23T06:50:09;22.05;;;16.65;;
21727;SDS011;11026;50.560;17.852;2024-03-23T06:52:37;22.38;;;16.10;;
21727;SDS011;11026;50.560;17.852;2024-03-23T06:55:05;22.67;;;15.60;;
21727;SDS011;11026;50.560;17.852;2024-03-23T06:57:32;21.42;;;15.90;;
21727;SDS011;11026;50.560;17.852;2024-03-23T06:59:58;20.90;;;15.98;;
21727;SDS011;11026;50.560;17.852;2024-03-23T07:02:24;20.10;;;14.73;;
21727;SDS011;11026;50.560;17.852;2024-03-23T07:04:50;21.10;;;14.55;;
21727;SDS011;11026;50.560;17.852;2024-03-23T07:07:17;20.85;;;14.27;;
21727;SDS011;11026;50.560;17.852;2024-03-23T07:09:43;21.88;;;16.08;;
21727;SDS011;11026;50.560;17.852;2024-03-23T07:12:09;21.80;;;14.38;;
21727;SDS011;11026;50.560;17.852;2024-03-23T07:14:35;19.05;;;14.13;;
21727;SDS011;11026;50.560;17.852;2024-03-23T07:17:02;20.70;;;14.40;;
21727;SDS011;11026;50.560;17.852;2024-03-23T07:19:29;21.40;;;14.80;;
21727;SDS011;11026;50.560;17.852;2024-03-23T07:21:55;18.55;;;13.15;;
21727;SDS011;11026;50.560;17.852;2024-03-23T07:24:22;17.85;;;13.32;;
21727;SDS011;11026;50.560;17.852;2024-03-23T07:26:47;16.25;;;13.10;;
21727;SDS011;11026;50.560;17.852;2024-03-23T07:29:13;15.75;;;12.50;;
21727;SDS011;11026;50.560;17.852;2024-03-23T07:31:40;17.90;;;12.93;;
21727;SDS011;11026;50.560;17.852;2024-03-23T07:34:07;16.90;;;12.63;;
21727;SDS011;11026;50.560;17.852;2024-03-23T07:36:34;15.95;;;12.65;;
21727;SDS011;11026;50.560;17.852;2024-03-23T07:39:01;16.10;;;12.40;;
21727;SDS011;11026;50.560;17.852;2024-03-23T07:41:30;15.40;;;11.75;;
21727;SDS011;11026;50.560;17.852;2024-03-23T07:43:56;14.45;;;11.65;;
21727;SDS011;11026;50.560;17.852;2024-03-23T07:46:23;28.45;;;18.55;;
21727;SDS011;11026;50.560;17.852;2024-03-23T07:48:51;25.17;;;14.32;;
21727;SDS011;11026;50.560;17.852;2024-03-23T07:51:20;14.73;;;11.23;;
21727;SDS011;11026;50.560;17.852;2024-03-23T07:53:49;18.70;;;11.88;;
21727;SDS011;11026;50.560;17.852;2024-03-23T07:56:15;15.88;;;11.60;;
21727;SDS011;11026;50.560;17.852;2024-03-23T07:58:44;15.40;;;12.32;;
21727;SDS011;11026;50.560;17.852;2024-03-23T08:01:12;15.35;;;11.93;;
21727;SDS011;11026;50.560;17.852;2024-03-23T08:03:40;17.33;;;12.00;;
21727;SDS011;11026;50.560;17.852;2024-03-23T08:08:43;14.40;;;11.25;;
21727;SDS011;11026;50.560;17.852;2024-03-23T08:11:11;15.30;;;11.45;;
21727;SDS011;11026;50.560;17.852;2024-03-23T08:13:40;15.13;;;11.48;;
21727;SDS011;11026;50.560;17.852;2024-03-23T08:16:07;14.25;;;10.38;;
21727;SDS011;11026;50.560;17.852;2024-03-23T08:18:37;13.45;;;10.20;;
21727;SDS011;11026;50.560;17.852;2024-03-23T08:21:04;16.30;;;10.38;;
21727;SDS011;11026;50.560;17.852;2024-03-23T08:23:32;15.60;;;10.57;;
21727;SDS011;11026;50.560;17.852;2024-03-23T08:26:06;17.13;;;11.75;;
21727;SDS011;11026;50.560;17.852;2024-03-23T08:28:34;16.23;;;11.43;;
21727;SDS011;11026;50.560;17.852;2024-03-23T08:31:01;15.02;;;11.25;;
21727;SDS011;11026;50.560;17.852;2024-03-23T08:33:34;14.18;;;10.35;;
21727;SDS011;11026;50.560;17.852;2024-03-23T08:36:06;13.05;;;10.27;;
21727;SDS011;11026;50.560;17.852;2024-03-23T08:38:34;11.85;;;8.68;;
21727;SDS011;11026;50.560;17.852;2024-03-23T08:41:02;11.50;;;8.88;;
21727;SDS011;11026;50.560;17.852;2024-03-23T08:43:31;13.13;;;9.52;;
21727;SDS011;11026;50.560;17.852;2024-03-23T08:48:39;11.93;;;9.35;;
21727;SDS011;11026;50.560;17.852;2024-03-23T08:51:09;11.07;;;8.50;;
21727;SDS011;11026;50.560;17.852;2024-03-23T08:53:37;13.73;;;10.40;;
21727;SDS011;11026;50.560;17.852;2024-03-23T08:56:05;11.82;;;9.45;;
21727;SDS011;11026;50.560;17.852;2024-03-23T08:58:32;14.48;;;10.05;;
21727;SDS011;11026;50.560;17.852;2024-03-23T09:01:08;12.60;;;8.57;;
21727;SDS011;11026;50.560;17.852;2024-03-23T09:03:35;14.27;;;9.45;;
21727;SDS011;11026;50.560;17.852;2024-03-23T09:06:08;13.80;;;9.65;;
21727;SDS011;11026;50.560;17.852;2024-03-23T09:08:35;13.25;;;8.75;;
21727;SDS011;11026;50.560;17.852;2024-03-23T09:11:06;11.65;;;8.57;;
21727;SDS011;11026;50.560;17.852;2024-03-23T09:13:36;12.15;;;8.10;;
21727;SDS011;11026;50.560;17.852;2024-03-23T09:16:03;10.77;;;8.00;;
21727;SDS011;11026;50.560;17.852;2024-03-23T09:18:35;10.57;;;8.20;;
21727;SDS011;11026;50.560;17.852;2024-03-23T09:21:02;9.60;;;7.78;;
21727;SDS011;11026;50.560;17.852;2024-03-23T09:23:29;8.57;;;7.32;;
21727;SDS011;11026;50.560;17.852;2024-03-23T09:25:56;10.30;;;7.20;;
21727;SDS011;11026;50.560;17.852;2024-03-23T09:28:22;10.30;;;7.75;;
21727;SDS011;11026;50.560;17.852;2024-03-23T09:30:49;10.15;;;7.72;;
21727;SDS011;11026;50.560;17.852;2024-03-23T09:33:17;9.65;;;6.97;;
21727;SDS011;11026;50.560;17.852;2024-03-23T09:35:44;8.85;;;6.53;;
21727;SDS011;11026;50.560;17.852;2024-03-23T09:38:10;6.70;;;5.97;;
21727;SDS011;11026;50.560;17.852;2024-03-23T09:40:40;10.45;;;6.75;;
21727;SDS011;11026;50.560;17.852;2024-03-23T09:43:10;8.82;;;7.50;;
21727;SDS011;11026;50.560;17.852;2024-03-23T09:45:38;8.57;;;6.88;;
21727;SDS011;11026;50.560;17.852;2024-03-23T09:48:09;9.07;;;6.88;;
21727;SDS011;11026;50.560;17.852;2024-03-23T09:50:40;8.82;;;7.57;;
21727;SDS011;11026;50.560;17.852;2024-03-23T09:53:09;10.35;;;6.97;;
21727;SDS011;11026;50.560;17.852;2024-03-23T09:58:07;7.72;;;5.70;;
21727;SDS011;11026;50.560;17.852;2024-03-23T10:00:36;7.85;;;5.88;;
21727;SDS011;11026;50.560;17.852;2024-03-23T10:03:02;7.45;;;6.10;;
21727;SDS011;11026;50.560;17.852;2024-03-23T10:05:30;7.05;;;5.68;;
21727;SDS011;11026;50.560;17.852;2024-03-23T10:08:21;8.65;;;6.75;;
21727;SDS011;11026;50.560;17.852;2024-03-23T10:10:47;8.13;;;6.32;;
21727;SDS011;11026;50.560;17.852;2024-03-23T10:15:58;10.30;;;6.55;;
21727;SDS011;11026;50.560;17.852;2024-03-23T10:18:27;8.07;;;6.85;;
21727;SDS011;11026;50.560;17.852;2024-03-23T10:21:06;10.23;;;6.53;;
21727;SDS011;11026;50.560;17.852;2024-03-23T10:23:35;9.60;;;6.28;;
21727;SDS011;11026;50.560;17.852;2024-03-23T10:28:51;9.38;;;6.03;;
21727;SDS011;11026;50.560;17.852;2024-03-23T10:31:20;6.60;;;5.90;;
21727;SDS011;11026;50.560;17.852;2024-03-23T10:33:48;10.90;;;6.78;;
21727;SDS011;11026;50.560;17.852;2024-03-23T10:36:15;6.95;;;6.00;;
21727;SDS011;11026;50.560;17.852;2024-03-23T10:38:43;7.07;;;6.38;;
21727;SDS011;11026;50.560;17.852;2024-03-23T10:41:10;7.32;;;5.40;;
21727;SDS011;11026;50.560;17.852;2024-03-23T10:46:06;7.90;;;5.10;;
21727;SDS011;11026;50.560;17.852;2024-03-23T10:48:32;7.28;;;4.55;;
21727;SDS011;11026;50.560;17.852;2024-03-23T10:50:58;3.33;;;2.97;;
21727;SDS011;11026;50.560;17.852;2024-03-23T10:53:25;5.32;;;4.00;;
21727;SDS011;11026;50.560;17.852;2024-03-23T10:55:53;3.75;;;3.08;;
21727;SDS011;11026;50.560;17.852;2024-03-23T10:58:31;5.70;;;3.00;;
21727;SDS011;11026;50.560;17.852;2024-03-23T11:01:03;4.65;;;3.40;;
21727;SDS011;11026;50.560;17.852;2024-03-23T11:06:03;6.05;;;3.22;;
21727;SDS011;11026;50.560;17.852;2024-03-23T11:08:36;5.22;;;2.83;;
21727;SDS011;11026;50.560;17.852;2024-03-23T11:11:14;3.50;;;3.05;;
21727;SDS011;11026;50.560;17.852;2024-03-23T11:13:42;4.93;;;3.58;;
21727;SDS011;11026;50.560;17.852;2024-03-23T11:21:54;4.63;;;3.30;;
21727;SDS011;11026;50.560;17.852;2024-03-23T11:24:21;4.10;;;3.38;;
21727;SDS011;11026;50.560;17.852;2024-03-23T11:26:49;6.40;;;3.63;;
21727;SDS011;11026;50.560;17.852;2024-03-23T11:29:16;5.90;;;3.10;;
21727;SDS011;11026;50.560;17.852;2024-03-23T11:31:49;3.90;;;3.10;;
21727;SDS011;11026;50.560;17.852;2024-03-23T11:36:48;5.43;;;3.50;;
21727;SDS011;11026;50.560;17.852;2024-03-23T11:39:18;5.53;;;3.03;;
21727;SDS011;11026;50.560;17.852;2024-03-23T11:41:50;6.60;;;3.53;;
21727;SDS011;11026;50.560;17.852;2024-03-23T11:44:22;4.32;;;3.60;;
21727;SDS011;11026;50.560;17.852;2024-03-23T11:46:52;4.45;;;3.20;;
21727;SDS011;11026;50.560;17.852;2024-03-23T11:49:25;4.65;;;3.30;;
21727;SDS011;11026;50.560;17.852;2024-03-23T11:57:02;4.85;;;3.13;;
21727;SDS011;11026;50.560;17.852;2024-03-23T11:59:33;4.63;;;3.33;;
21727;SDS011;11026;50.560;17.852;2024-03-23T12:02:05;5.70;;;2.90;;
21727;SDS011;11026;50.560;17.852;2024-03-23T12:04:37;5.10;;;2.88;;
21727;SDS011;11026;50.560;17.852;2024-03-23T12:09:45;5.82;;;3.50;;
21727;SDS011;11026;50.560;17.852;2024-03-23T12:12:17;4.15;;;3.00;;
21727;SDS011;11026;50.560;17.852;2024-03-23T12:14:45;4.47;;;3.53;;
21727;SDS011;11026;50.560;17.852;2024-03-23T12:17:26;5.53;;;3.67;;
21727;SDS011;11026;50.560;17.852;2024-03-23T12:19:52;4.10;;;3.22;;
21727;SDS011;11026;50.560;17.852;2024-03-23T12:22:21;170.32;;;82.68;;
21727;SDS011;11026;50.560;17.852;2024-03-23T12:24:48;103.32;;;51.70;;
21727;SDS011;11026;50.560;17.852;2024-03-23T12:32:12;14.90;;;8.60;;
21727;SDS011;11026;50.560;17.852;2024-03-23T12:34:39;15.27;;;9.10;;
21727;SDS011;11026;50.560;17.852;2024-03-23T12:37:06;15.38;;;9.75;;
21727;SDS011;11026;50.560;17.852;2024-03-23T12:39:33;10.93;;;7.35;;
21727;SDS011;11026;50.560;17.852;2024-03-23T12:42:01;10.63;;;7.80;;
21727;SDS011;11026;50.560;17.852;2024-03-23T12:44:32;8.18;;;6.05;;
21727;SDS011;11026;50.560;17.852;2024-03-23T12:46:58;7.38;;;5.78;;
21727;SDS011;11026;50.560;17.852;2024-03-23T12:51:53;5.28;;;4.13;;
21727;SDS011;11026;50.560;17.852;2024-03-23T12:54:25;6.75;;;4.97;;
21727;SDS011;11026;50.560;17.852;2024-03-23T12:56:51;5.28;;;4.13;;
21727;SDS011;11026;50.560;17.852;2024-03-23T12:59:18;6.82;;;4.18;;
21727;SDS011;11026;50.560;17.852;2024-03-23T13:01:44;5.10;;;3.83;;
21727;SDS011;11026;50.560;17.852;2024-03-23T13:04:10;7.47;;;4.50;;
21727;SDS011;11026;50.560;17.852;2024-03-23T13:06:39;5.63;;;4.22;;
21727;SDS011;11026;50.560;17.852;2024-03-23T13:09:05;6.38;;;4.78;;
21727;SDS011;11026;50.560;17.852;2024-03-23T13:11:31;5.80;;;4.20;;
21727;SDS011;11026;50.560;17.852;2024-03-23T13:13:57;7.78;;;4.53;;
21727;SDS011;11026;50.560;17.852;2024-03-23T13:16:24;4.50;;;3.90;;
21727;SDS011;11026;50.560;17.852;2024-03-23T13:18:50;5.30;;;4.00;;
21727;SDS011;11026;50.560;17.852;2024-03-23T13:21:18;4.82;;;3.20;;
21727;SDS011;11026;50.560;17.852;2024-03-23T13:23:47;4.13;;;3.05;;
21727;SDS011;11026;50.560;17.852;2024-03-23T13:26:14;4.55;;;3.20;;
21727;SDS011;11026;50.560;17.852;2024-03-23T13:28:40;4.07;;;3.10;;
21727;SDS011;11026;50.560;17.852;2024-03-23T13:31:07;4.88;;;3.40;;
21727;SDS011;11026;50.560;17.852;2024-03-23T13:33:34;4.35;;;2.95;;
21727;SDS011;11026;50.560;17.852;2024-03-23T13:36:02;5.97;;;4.00;;
21727;SDS011;11026;50.560;17.852;2024-03-23T13:38:30;4.57;;;3.33;;
21727;SDS011;11026;50.560;17.852;2024-03-23T13:40:57;5.25;;;2.92;;
21727;SDS011;11026;50.560;17.852;2024-03-23T13:43:27;5.15;;;3.25;;
21727;SDS011;11026;50.560;17.852;2024-03-23T13:45:57;5.57;;;3.25;;
21727;SDS011;11026;50.560;17.852;2024-03-23T13:48:25;3.97;;;2.65;;
21727;SDS011;11026;50.560;17.852;2024-03-23T13:50:59;4.47;;;3.25;;
21727;SDS011;11026;50.560;17.852;2024-03-23T13:53:26;3.92;;;3.08;;
21727;SDS011;11026;50.560;17.852;2024-03-23T13:55:53;3.47;;;3.03;;
21727;SDS011;11026;50.560;17.852;2024-03-23T13:58:19;6.25;;;3.35;;
21727;SDS011;11026;50.560;17.852;2024-03-23T14:00:47;9.05;;;7.28;;
21727;SDS011;11026;50.560;17.852;2024-03-23T14:03:13;5.75;;;3.40;;
21727;SDS011;11026;50.560;17.852;2024-03-23T14:05:40;3.65;;;3.20;;
21727;SDS011;11026;50.560;17.852;2024-03-23T14:08:08;3.80;;;3.40;;
21727;SDS011;11026;50.560;17.852;2024-03-23T14:13:07;6.20;;;3.40;;
21727;SDS011;11026;50.560;17.852;2024-03-23T14:15:34;5.00;;;3.80;;
21727;SDS011;11026;50.560;17.852;2024-03-23T14:18:04;5.18;;;3.85;;
21727;SDS011;11026;50.560;17.852;2024-03-23T14:20:30;5.75;;;3.58;;
21727;SDS011;11026;50.560;17.852;2024-03-23T14:22:56;4.90;;;4.00;;
21727;SDS011;11026;50.560;17.852;2024-03-23T14:25:22;5.40;;;3.58;;
21727;SDS011;11026;50.560;17.852;2024-03-23T14:27:53;6.43;;;3.70;;
21727;SDS011;11026;50.560;17.852;2024-03-23T14:30:20;5.10;;;4.10;;
21727;SDS011;11026;50.560;17.852;2024-03-23T14:32:48;6.82;;;5.13;;
21727;SDS011;11026;50.560;17.852;2024-03-23T14:35:14;6.97;;;5.00;;
21727;SDS011;11026;50.560;17.852;2024-03-23T14:37:40;6.18;;;5.40;;
21727;SDS011;11026;50.560;17.852;2024-03-23T14:40:07;7.65;;;5.25;;
21727;SDS011;11026;50.560;17.852;2024-03-23T14:42:35;6.00;;;4.88;;
21727;SDS011;11026;50.560;17.852;2024-03-23T14:45:04;7.22;;;5.90;;
21727;SDS011;11026;50.560;17.852;2024-03-23T14:47:31;7.10;;;5.90;;
21727;SDS011;11026;50.560;17.852;2024-03-23T14:49:56;10.13;;;7.22;;
21727;SDS011;11026;50.560;17.852;2024-03-23T14:52:24;10.23;;;6.82;;
21727;SDS011;11026;50.560;17.852;2024-03-23T14:57:20;5.82;;;5.22;;
21727;SDS011;11026;50.560;17.852;2024-03-23T14:59:46;7.47;;;5.28;;
21727;SDS011;11026;50.560;17.852;2024-03-23T15:02:12;6.78;;;4.85;;
21727;SDS011;11026;50.560;17.852;2024-03-23T15:04:39;5.90;;;3.78;;
21727;SDS011;11026;50.560;17.852;2024-03-23T15:07:09;4.93;;;4.13;;
21727;SDS011;11026;50.560;17.852;2024-03-23T15:09:35;4.78;;;4.28;;
21727;SDS011;11026;50.560;17.852;2024-03-23T15:12:02;5.30;;;3.47;;
21727;SDS011;11026;50.560;17.852;2024-03-23T15:14:28;5.35;;;3.88;;
21727;SDS011;11026;50.560;17.852;2024-03-23T15:16:55;4.25;;;3.42;;
21727;SDS011;11026;50.560;17.852;2024-03-23T15:19:21;3.47;;;2.78;;
21727;SDS011;11026;50.560;17.852;2024-03-23T15:21:50;5.65;;;2.83;;
21727;SDS011;11026;50.560;17.852;2024-03-23T15:24:18;3.55;;;2.42;;
21727;SDS011;11026;50.560;17.852;2024-03-23T15:26:44;2.67;;;2.22;;
21727;SDS011;11026;50.560;17.852;2024-03-23T15:29:11;3.35;;;2.90;;
21727;SDS011;11026;50.560;17.852;2024-03-23T15:31:40;3.47;;;3.10;;
21727;SDS011;11026;50.560;17.852;2024-03-23T15:34:06;3.50;;;3.17;;
21727;SDS011;11026;50.560;17.852;2024-03-23T15:36:36;4.20;;;3.80;;
21727;SDS011;11026;50.560;17.852;2024-03-23T15:39:04;4.00;;;3.60;;
21727;SDS011;11026;50.560;17.852;2024-03-23T15:41:31;4.85;;;3.42;;
21727;SDS011;11026;50.560;17.852;2024-03-23T15:43:58;6.55;;;5.53;;
21727;SDS011;11026;50.560;17.852;2024-03-23T15:46:24;5.45;;;4.90;;
21727;SDS011;11026;50.560;17.852;2024-03-23T15:48:51;4.53;;;4.13;;
21727;SDS011;11026;50.560;17.852;2024-03-23T15:51:17;4.70;;;3.75;;
21727;SDS011;11026;50.560;17.852;2024-03-23T15:53:43;4.07;;;3.20;;
21727;SDS011;11026;50.560;17.852;2024-03-23T15:56:10;3.17;;;2.88;;
21727;SDS011;11026;50.560;17.852;2024-03-23T15:58:37;2.40;;;2.20;;
21727;SDS011;11026;50.560;17.852;2024-03-23T16:03:41;2.85;;;2.65;;
21727;SDS011;11026;50.560;17.852;2024-03-23T16:06:07;6.03;;;2.42;;
21727;SDS011;11026;50.560;17.852;2024-03-23T16:08:34;2.65;;;2.45;;
21727;SDS011;11026;50.560;17.852;2024-03-23T16:11:04;2.35;;;2.15;;
21727;SDS011;11026;50.560;17.852;2024-03-23T16:13:31;2.72;;;2.53;;
21727;SDS011;11026;50.560;17.852;2024-03-23T16:16:00;4.75;;;2.53;;
21727;SDS011;11026;50.560;17.852;2024-03-23T16:18:35;2.92;;;2.17;;
21727;SDS011;11026;50.560;17.852;2024-03-23T16:21:03;4.50;;;3.35;;
21727;SDS011;11026;50.560;17.852;2024-03-23T16:23:32;2.10;;;1.70;;
21727;SDS011;11026;50.560;17.852;2024-03-23T16:26:03;2.22;;;1.70;;